
Distance (Route):
Temperature : -50.6°C
Humidity : 0%
Pressure : 44.8hPa| Receiver | Date | Latitude | Longitude | Direction | Speed | Altitude | Climb | Temperature | Humidity | Pressure | Voltage | Killtimer | Uptime | BKT | XDATA |
|---|---|---|---|---|---|---|---|---|---|---|---|---|---|---|---|
| AA1-15 | 2026-09-05 13:06:04 | 16.02849 | 49.68078 | 0° | 0km/h | 159087m | 0m/s | -50.6°C | 0% | 44.8hPa | 2.4V | 00:00:00 | 00:00:00 | 00:00:00 | |
| AA1-15 | 2026-09-05 13:05:16 | 16.02849 | 49.68078 | 0° | 0km/h | 159087m | 0m/s | -49°C | 0% | 32.2hPa | 2.4V | 00:00:00 | 00:00:00 | 00:00:00 | |
| AA1-15 | 2026-09-05 13:02:08 | 16.02849 | 49.68078 | 0° | 0km/h | 159087m | 0m/s | -32°C | 0% | 3.5hPa | 2.3V | 00:00:00 | 00:00:00 | 00:00:00 | |
| AA1-15 | 2026-09-05 13:01:56 | 16.02849 | 49.68078 | 0° | 0km/h | 159087m | 0m/s | -31.7°C | 0% | 3.3hPa | 2.3V | 00:00:00 | 00:00:00 | 00:00:00 | |
| AA1-15 | 2026-09-05 13:01:45 | 16.02849 | 49.68078 | 0° | 0km/h | 159087m | 0m/s | -31.9°C | 0% | 3.4hPa | 2.3V | 00:00:00 | 00:00:00 | 00:00:00 | |
| AA1-15 | 2026-09-05 13:01:34 | 16.02849 | 49.68078 | 0° | 0km/h | 159087m | 0m/s | -31.8°C | 0% | 3.4hPa | 2.3V | 00:00:00 | 00:00:00 | 00:00:00 | |
| AA1-15 | 2026-09-05 13:01:24 | 16.02849 | 49.68078 | 0° | 0km/h | 159087m | 0m/s | -31.8°C | 0% | 3.5hPa | 2.3V | 00:00:00 | 00:00:00 | 00:00:00 | |
| AA1-15 | 2026-09-05 13:01:13 | 16.02849 | 49.68078 | 0° | 0km/h | 159087m | 0m/s | -31.6°C | 0% | 3.5hPa | 2.3V | 00:00:00 | 00:00:00 | 00:00:00 | |
| AA1-15 | 2026-09-05 13:01:02 | 16.02849 | 49.68078 | 0° | 0km/h | 159087m | 0m/s | -31.6°C | 0% | 3.6hPa | 2.3V | 00:00:00 | 00:00:00 | 00:00:00 | |
| AA1-15 | 2026-09-05 13:00:00 | 16.02849 | 49.68078 | 0° | 0km/h | 159087m | 0m/s | -31.9°C | 0% | 3.9hPa | 2.3V | 00:00:00 | 00:00:00 | 00:00:00 | |
| AA1-15 | 2026-09-05 12:59:49 | 16.02849 | 49.68078 | 0° | 0km/h | 159087m | 0m/s | -31.8°C | 0% | 4hPa | 2.3V | 00:00:00 | 00:00:00 | 00:00:00 | |
| AA1-15 | 2026-09-05 12:59:06 | 16.02849 | 49.68078 | 0° | 0km/h | 159087m | 0m/s | -32.5°C | 0% | 4.2hPa | 2.3V | 00:00:00 | 00:00:00 | 00:00:00 | |
| AA1-15 | 2026-09-05 12:58:54 | 16.02849 | 49.68078 | 0° | 0km/h | 159087m | 0m/s | -33°C | 0% | 4.3hPa | 2.3V | 00:00:00 | 00:00:00 | 00:00:00 | |
| AA1-15 | 2026-09-05 12:58:43 | 16.02849 | 49.68078 | 0° | 0km/h | 159087m | 0m/s | -33.2°C | 0% | 4.4hPa | 2.3V | 00:00:00 | 00:00:00 | 00:00:00 | |
| AA1-15 | 2026-09-05 12:58:32 | 16.02849 | 49.68078 | 0° | 0km/h | 159087m | 0m/s | -33.4°C | 0% | 4.5hPa | 2.3V | 00:00:00 | 00:00:00 | 00:00:00 | |
| AA1-15 | 2026-09-05 12:58:20 | 16.02849 | 49.68078 | 0° | 0km/h | 159087m | 0m/s | -33.7°C | 0% | 4.5hPa | 2.3V | 00:00:00 | 00:00:00 | 00:00:00 | |
| AA1-15 | 2026-09-05 12:58:06 | 16.02849 | 49.68078 | 0° | 0km/h | 159087m | 0m/s | -33.9°C | 0% | 4.6hPa | 2.3V | 00:00:00 | 00:00:00 | 00:00:00 | |
| AA1-15 | 2026-09-05 12:57:54 | 16.02849 | 49.68078 | 0° | 0km/h | 159087m | 0m/s | -34.2°C | 0% | 4.7hPa | 2.3V | 00:00:00 | 00:00:00 | 00:00:00 | |
| AA1-15 | 2026-09-05 12:57:43 | 16.02849 | 49.68078 | 0° | 0km/h | 159087m | 0m/s | -34.1°C | 0% | 4.7hPa | 2.3V | 00:00:00 | 00:00:00 | 00:00:00 | |
| AA1-15 | 2026-09-05 12:57:32 | 16.02849 | 49.68078 | 0° | 0km/h | 159087m | 0m/s | -34.1°C | 0% | 4.8hPa | 2.3V | 00:00:00 | 00:00:00 | 00:00:00 | |
| AA1-15 | 2026-09-05 12:57:22 | 16.02849 | 49.68078 | 0° | 0km/h | 159087m | 0m/s | -34.5°C | 0% | 4.9hPa | 2.3V | 00:00:00 | 00:00:00 | 00:00:00 | |
| AA1-15 | 2026-09-05 12:57:11 | 16.02849 | 49.68078 | 0° | 0km/h | 159087m | 0m/s | -34.7°C | 0% | 5hPa | 2.3V | 00:00:00 | 00:00:00 | 00:00:00 | |
| AA1-15 | 2026-09-05 12:57:00 | 16.02849 | 49.68078 | 0° | 0km/h | 159087m | 0m/s | -34.7°C | 0% | 5hPa | 2.3V | 00:00:00 | 00:00:00 | 00:00:00 | |
| AA1-15 | 2026-09-05 12:56:49 | 16.02849 | 49.68078 | 0° | 0km/h | 159087m | 0m/s | -34.8°C | 0% | 5.1hPa | 2.3V | 00:00:00 | 00:00:00 | 00:00:00 | |
| AA1-15 | 2026-09-05 12:56:38 | 16.02849 | 49.68078 | 0° | 0km/h | 159087m | 0m/s | -35.2°C | 0% | 5.2hPa | 2.3V | 00:00:00 | 00:00:00 | 00:00:00 | |
| AA1-15 | 2026-09-05 12:56:27 | 16.02849 | 49.68078 | 0° | 0km/h | 159087m | 0m/s | -35.4°C | 0% | 5.3hPa | 2.3V | 00:00:00 | 00:00:00 | 00:00:00 | |
| AA1-15 | 2026-09-05 12:56:17 | 16.02849 | 49.68078 | 0° | 0km/h | 159087m | 0m/s | -35.7°C | 0% | 5.3hPa | 2.3V | 00:00:00 | 00:00:00 | 00:00:00 | |
| AA1-15 | 2026-09-05 12:56:03 | 16.02849 | 49.68078 | 0° | 0km/h | 159087m | 0m/s | -36.4°C | 0% | 5.4hPa | 2.3V | 00:00:00 | 00:00:00 | 00:00:00 | |
| AA1-15 | 2026-09-05 12:55:52 | 16.02849 | 49.68078 | 0° | 0km/h | 159087m | 0m/s | -36.9°C | 0% | 5.5hPa | 2.3V | 00:00:00 | 00:00:00 | 00:00:00 | |
| AA1-15 | 2026-09-05 12:55:37 | 16.02849 | 49.68078 | 0° | 0km/h | 159087m | 0m/s | -36.8°C | 0% | 5.6hPa | 2.3V | 00:00:00 | 00:00:00 | 00:00:00 | |
| AA1-15 | 2026-09-05 12:55:25 | 16.02849 | 49.68078 | 0° | 0km/h | 159087m | 0m/s | -36.5°C | 0% | 5.7hPa | 2.3V | 00:00:00 | 00:00:00 | 00:00:00 | |
| AA1-15 | 2026-09-05 12:55:14 | 16.02849 | 49.68078 | 0° | 0km/h | 159087m | 0m/s | -36.1°C | 0% | 5.8hPa | 2.3V | 00:00:00 | 00:00:00 | 00:00:00 | |
| AA1-15 | 2026-09-05 12:55:04 | 16.02849 | 49.68078 | 0° | 0km/h | 159087m | 0m/s | -36.2°C | 0% | 5.9hPa | 2.3V | 00:00:00 | 00:00:00 | 00:00:00 | |
| AA1-15 | 2026-09-05 12:54:53 | 16.02849 | 49.68078 | 0° | 0km/h | 159087m | 0m/s | -36.1°C | 0% | 5.9hPa | 2.3V | 00:00:00 | 00:00:00 | 00:00:00 | |
| AA1-15 | 2026-09-05 12:54:39 | 16.02849 | 49.68078 | 0° | 0km/h | 159087m | 0m/s | -35.8°C | 0% | 6.1hPa | 2.3V | 00:00:00 | 00:00:00 | 00:00:00 | |
| AA1-15 | 2026-09-05 12:54:27 | 16.02849 | 49.68078 | 0° | 0km/h | 159087m | 0m/s | -35.8°C | 0% | 6.2hPa | 2.3V | 00:00:00 | 00:00:00 | 00:00:00 | |
| AA1-15 | 2026-09-05 12:54:16 | 16.02849 | 49.68078 | 0° | 0km/h | 159087m | 0m/s | -36.2°C | 0% | 6.3hPa | 2.3V | 00:00:00 | 00:00:00 | 00:00:00 | |
| AA1-15 | 2026-09-05 12:54:04 | 16.02849 | 49.68078 | 0° | 0km/h | 159087m | 0m/s | -37°C | 0% | 6.4hPa | 2.3V | 00:00:00 | 00:00:00 | 00:00:00 | |
| AA1-15 | 2026-09-05 12:53:48 | 16.02849 | 49.68078 | 0° | 0km/h | 159087m | 0m/s | -37.5°C | 0% | 6.5hPa | 2.3V | 00:00:00 | 00:00:00 | 00:00:00 | |
| AA1-15 | 2026-09-05 12:53:37 | 16.02849 | 49.68078 | 0° | 0km/h | 159087m | 0m/s | -38°C | 0% | 6.5hPa | 2.3V | 00:00:00 | 00:00:00 | 00:00:00 | |
| AA1-15 | 2026-09-05 12:53:25 | 16.02849 | 49.68078 | 0° | 0km/h | 159087m | 0m/s | -38.5°C | 0% | 6.7hPa | 2.3V | 00:00:00 | 00:00:00 | 00:00:00 | |
| AA1-15 | 2026-09-05 12:53:13 | 16.02849 | 49.68078 | 0° | 0km/h | 159087m | 0m/s | -38.7°C | 0% | 6.7hPa | 2.3V | 00:00:00 | 00:00:00 | 00:00:00 | |
| AA1-15 | 2026-09-05 12:52:59 | 16.02849 | 49.68078 | 0° | 0km/h | 159087m | 0m/s | -38.5°C | 0% | 6.8hPa | 2.3V | 00:00:00 | 00:00:00 | 00:00:00 | |
| AA1-15 | 2026-09-05 12:52:48 | 16.02849 | 49.68078 | 0° | 0km/h | 159087m | 0m/s | -38.9°C | 0% | 6.9hPa | 2.3V | 00:00:00 | 00:00:00 | 00:00:00 | |
| AA1-15 | 2026-09-05 12:52:37 | 16.02849 | 49.68078 | 0° | 0km/h | 159087m | 0m/s | -38.9°C | 0% | 7hPa | 2.3V | 00:00:00 | 00:00:00 | 00:00:00 | |
| AA1-15 | 2026-09-05 12:52:24 | 16.02849 | 49.68078 | 0° | 0km/h | 159087m | 0m/s | -39.2°C | 0% | 7.2hPa | 2.3V | 00:00:00 | 00:00:00 | 00:00:00 | |
| AA1-15 | 2026-09-05 12:52:10 | 16.02849 | 49.68078 | 0° | 0km/h | 159087m | 0m/s | -39°C | 0% | 7.3hPa | 2.3V | 00:00:00 | 00:00:00 | 00:00:00 | |
| AA1-15 | 2026-09-05 12:52:00 | 16.02849 | 49.68078 | 0° | 0km/h | 159087m | 0m/s | -39.5°C | 0% | 7.4hPa | 2.3V | 00:00:00 | 00:00:00 | 00:00:00 | |
| AA1-15 | 2026-09-05 12:51:46 | 16.02849 | 49.68078 | 0° | 0km/h | 159087m | 0m/s | -39.6°C | 0% | 7.5hPa | 2.3V | 00:00:00 | 00:00:00 | 00:00:00 | |
| AA1-15 | 2026-09-05 12:51:35 | 16.02849 | 49.68078 | 0° | 0km/h | 159087m | 0m/s | -39.5°C | 0% | 7.6hPa | 2.3V | 00:00:00 | 00:00:00 | 00:00:00 | |
| AA1-15 | 2026-09-05 12:51:18 | 16.02849 | 49.68078 | 0° | 0km/h | 159087m | 0m/s | -39.6°C | 0% | 7.7hPa | 2.3V | 00:00:00 | 00:00:00 | 00:00:00 | |
| AA1-15 | 2026-09-05 12:51:05 | 16.02849 | 49.68078 | 0° | 0km/h | 159087m | 0m/s | -39.7°C | 0% | 7.8hPa | 2.3V | 00:00:00 | 00:00:00 | 00:00:00 | |
| AA1-15 | 2026-09-05 12:50:55 | 16.02849 | 49.68078 | 0° | 0km/h | 159087m | 0m/s | -39.6°C | 0% | 7.9hPa | 2.3V | 00:00:00 | 00:00:00 | 00:00:00 | |
| AA1-15 | 2026-09-05 12:50:42 | 16.02849 | 49.68078 | 0° | 0km/h | 159087m | 0m/s | -39.3°C | 0% | 8.1hPa | 2.3V | 00:00:00 | 00:00:00 | 00:00:00 | |
| AA1-15 | 2026-09-05 12:50:30 | 16.02849 | 49.68078 | 0° | 0km/h | 159087m | 0m/s | -39.5°C | 0% | 8.2hPa | 2.3V | 00:00:00 | 00:00:00 | 00:00:00 | |
| AA1-15 | 2026-09-05 12:49:59 | 16.02849 | 49.68078 | 0° | 0km/h | 159087m | 0m/s | -40.9°C | 0% | 8.5hPa | 2.3V | 00:00:00 | 00:00:00 | 00:00:00 | |
| AA1-15 | 2026-09-05 12:49:46 | 16.02849 | 49.68078 | 0° | 0km/h | 159087m | 0m/s | -41.5°C | 0% | 8.6hPa | 2.3V | 00:00:00 | 00:00:00 | 00:00:00 | |
| AA1-15 | 2026-09-05 12:49:23 | 16.02849 | 49.68078 | 0° | 0km/h | 159087m | 0m/s | -42.4°C | 0% | 8.9hPa | 2.3V | 00:00:00 | 00:00:00 | 00:00:00 | |
| AA1-15 | 2026-09-05 12:49:12 | 16.02849 | 49.68078 | 0° | 0km/h | 159087m | 0m/s | -42.7°C | 0% | 9hPa | 2.3V | 00:00:00 | 00:00:00 | 00:00:00 | |
| AA1-15 | 2026-09-05 12:49:01 | 16.02849 | 49.68078 | 0° | 0km/h | 159087m | 0m/s | -42.5°C | 0% | 9.1hPa | 2.3V | 00:00:00 | 00:00:00 | 00:00:00 | |
| AA1-15 | 2026-09-05 12:48:50 | 16.02849 | 49.68078 | 0° | 0km/h | 159087m | 0m/s | -42.5°C | 0% | 9.2hPa | 2.3V | 00:00:00 | 00:00:00 | 00:00:00 | |
| AA1-15 | 2026-09-05 12:48:38 | 16.02849 | 49.68078 | 0° | 0km/h | 159087m | 0m/s | -42.7°C | 0% | 9.4hPa | 2.3V | 00:00:00 | 00:00:00 | 00:00:00 | |
| AA1-15 | 2026-09-05 12:48:27 | 16.02849 | 49.68078 | 0° | 0km/h | 159087m | 0m/s | -42.5°C | 0% | 9.5hPa | 2.3V | 00:00:00 | 00:00:00 | 00:00:00 | |
| AA1-15 | 2026-09-05 12:48:16 | 16.02849 | 49.68078 | 0° | 0km/h | 159087m | 0m/s | -42.5°C | 0% | 9.6hPa | 2.3V | 00:00:00 | 00:00:00 | 00:00:00 | |
| AA1-15 | 2026-09-05 12:48:01 | 16.02849 | 49.68078 | 0° | 0km/h | 159087m | 0m/s | -42.5°C | 0% | 9.8hPa | 2.3V | 00:00:00 | 00:00:00 | 00:00:00 | |
| AA1-15 | 2026-09-05 12:47:51 | 16.02849 | 49.68078 | 0° | 0km/h | 159087m | 0m/s | -42.9°C | 0% | 9.9hPa | 2.3V | 00:00:00 | 00:00:00 | 00:00:00 | |
| AA1-15 | 2026-09-05 12:47:36 | 16.02849 | 49.68078 | 0° | 0km/h | 159087m | 0m/s | -43.5°C | 0% | 10hPa | 2.3V | 00:00:00 | 00:00:00 | 00:00:00 | |
| AA1-15 | 2026-09-05 12:47:25 | 16.02849 | 49.68078 | 0° | 0km/h | 159087m | 0m/s | -43.6°C | 0% | 10.2hPa | 2.3V | 00:00:00 | 00:00:00 | 00:00:00 | |
| AA1-15 | 2026-09-05 12:47:14 | 16.02849 | 49.68078 | 0° | 0km/h | 159087m | 0m/s | -43.6°C | 0% | 10.3hPa | 2.3V | 00:00:00 | 00:00:00 | 00:00:00 | |
| AA1-15 | 2026-09-05 12:47:03 | 16.02849 | 49.68078 | 0° | 0km/h | 159087m | 0m/s | -43.4°C | 0% | 10.5hPa | 2.3V | 00:00:00 | 00:00:00 | 00:00:00 | |
| AA1-15 | 2026-09-05 12:46:52 | 16.02849 | 49.68078 | 0° | 0km/h | 159087m | 0m/s | -43.9°C | 0% | 10.6hPa | 2.3V | 00:00:00 | 00:00:00 | 00:00:00 | |
| AA1-15 | 2026-09-05 12:46:39 | 16.02849 | 49.68078 | 0° | 0km/h | 159087m | 0m/s | -44.4°C | 0% | 10.8hPa | 2.3V | 00:00:00 | 00:00:00 | 00:00:00 | |
| AA1-15 | 2026-09-05 12:46:28 | 16.02849 | 49.68078 | 0° | 0km/h | 159087m | 0m/s | -44.5°C | 0% | 10.9hPa | 2.3V | 00:00:00 | 00:00:00 | 00:00:00 | |
| AA1-15 | 2026-09-05 12:46:06 | 16.02849 | 49.68078 | 0° | 0km/h | 159087m | 0m/s | -44.7°C | 0% | 11.2hPa | 2.3V | 00:00:00 | 00:00:00 | 00:00:00 | |
| AA1-15 | 2026-09-05 12:45:54 | 16.02849 | 49.68078 | 0° | 0km/h | 159087m | 0m/s | -45.1°C | 0% | 11.3hPa | 2.3V | 00:00:00 | 00:00:00 | 00:00:00 | |
| AA1-15 | 2026-09-05 12:45:39 | 16.02849 | 49.68078 | 0° | 0km/h | 159087m | 0m/s | -45.8°C | 0% | 11.5hPa | 2.3V | 00:00:00 | 00:00:00 | 00:00:00 | |
| AA1-15 | 2026-09-05 12:45:24 | 16.02849 | 49.68078 | 0° | 0km/h | 159087m | 0m/s | -46.2°C | 0% | 11.7hPa | 2.3V | 00:00:00 | 00:00:00 | 00:00:00 | |
| AA1-15 | 2026-09-05 12:45:11 | 16.02849 | 49.68078 | 0° | 0km/h | 159087m | 0m/s | -46.3°C | 0% | 11.8hPa | 2.3V | 00:00:00 | 00:00:00 | 00:00:00 | |
| AA1-15 | 2026-09-05 12:44:57 | 16.02849 | 49.68078 | 0° | 0km/h | 159087m | 0m/s | -46.5°C | 0% | 12.1hPa | 2.3V | 00:00:00 | 00:00:00 | 00:00:00 | |
| AA1-15 | 2026-09-05 12:44:46 | 16.02849 | 49.68078 | 0° | 0km/h | 159087m | 0m/s | -47°C | 0% | 12.2hPa | 2.3V | 00:00:00 | 00:00:00 | 00:00:00 | |
| AA1-15 | 2026-09-05 12:44:36 | 16.02849 | 49.68078 | 0° | 0km/h | 159087m | 0m/s | -47°C | 0% | 12.3hPa | 2.3V | 00:00:00 | 00:00:00 | 00:00:00 | |
| AA1-15 | 2026-09-05 12:44:25 | 16.02849 | 49.68078 | 0° | 0km/h | 159087m | 0m/s | -46.7°C | 0% | 12.5hPa | 2.3V | 00:00:00 | 00:00:00 | 00:00:00 | |
| AA1-15 | 2026-09-05 12:44:13 | 16.02849 | 49.68078 | 0° | 0km/h | 159087m | 0m/s | -46.8°C | 0% | 12.7hPa | 2.3V | 00:00:00 | 00:00:00 | 00:00:00 | |
| AA1-15 | 2026-09-05 12:44:01 | 16.02849 | 49.68078 | 0° | 0km/h | 159087m | 0m/s | -46.9°C | 0% | 12.8hPa | 2.3V | 00:00:00 | 00:00:00 | 00:00:00 | |
| AA1-15 | 2026-09-05 12:43:40 | 16.02849 | 49.68078 | 0° | 0km/h | 159087m | 0m/s | -46.6°C | 0% | 13.1hPa | 2.3V | 00:00:00 | 00:00:00 | 00:00:00 | |
| AA1-15 | 2026-09-05 12:43:28 | 16.02849 | 49.68078 | 0° | 0km/h | 159087m | 0m/s | -46.5°C | 0% | 13.3hPa | 2.3V | 00:00:00 | 00:00:00 | 00:00:00 | |
| AA1-15 | 2026-09-05 12:43:17 | 16.02849 | 49.68078 | 0° | 0km/h | 159087m | 0m/s | -46.9°C | 0% | 13.5hPa | 2.3V | 00:00:00 | 00:00:00 | 00:00:00 | |
| AA1-15 | 2026-09-05 12:43:05 | 16.02849 | 49.68078 | 0° | 0km/h | 159087m | 0m/s | -47.2°C | 0% | 13.6hPa | 2.3V | 00:00:00 | 00:00:00 | 00:00:00 | |
| AA1-15 | 2026-09-05 12:42:54 | 16.02849 | 49.68078 | 0° | 0km/h | 159087m | 0m/s | -47.3°C | 0% | 13.8hPa | 2.3V | 00:00:00 | 00:00:00 | 00:00:00 | |
| AA1-15 | 2026-09-05 12:42:41 | 16.02849 | 49.68078 | 0° | 0km/h | 159087m | 0m/s | -47.9°C | 0% | 13.9hPa | 2.3V | 00:00:00 | 00:00:00 | 00:00:00 | |
| AA1-15 | 2026-09-05 12:42:30 | 16.02849 | 49.68078 | 0° | 0km/h | 159087m | 0m/s | -47.9°C | 0% | 14.2hPa | 2.3V | 00:00:00 | 00:00:00 | 00:00:00 | |
| AA1-15 | 2026-09-05 12:42:15 | 16.02849 | 49.68078 | 0° | 0km/h | 159087m | 0m/s | -47.7°C | 0% | 14.4hPa | 2.3V | 00:00:00 | 00:00:00 | 00:00:00 | |
| AA1-15 | 2026-09-05 12:42:04 | 16.02849 | 49.68078 | 0° | 0km/h | 159087m | 0m/s | -48.3°C | 0% | 14.6hPa | 2.3V | 00:00:00 | 00:00:00 | 00:00:00 | |
| AA1-15 | 2026-09-05 12:41:53 | 16.02849 | 49.68078 | 0° | 0km/h | 159087m | 0m/s | -48.4°C | 0% | 14.8hPa | 2.3V | 00:00:00 | 00:00:00 | 00:00:00 | |
| AA1-15 | 2026-09-05 12:41:43 | 16.02849 | 49.68078 | 0° | 0km/h | 159087m | 0m/s | -48°C | 0% | 14.9hPa | 2.3V | 00:00:00 | 00:00:00 | 00:00:00 | |
| AA1-15 | 2026-09-05 12:41:32 | 16.02849 | 49.68078 | 0° | 0km/h | 159087m | 0m/s | -48°C | 0% | 15.1hPa | 2.3V | 00:00:00 | 00:00:00 | 00:00:00 | |
| AA1-15 | 2026-09-05 12:41:15 | 16.02849 | 49.68078 | 0° | 0km/h | 159087m | 0m/s | -47.6°C | 0% | 15.4hPa | 2.3V | 00:00:00 | 00:00:00 | 00:00:00 | |
| AA1-15 | 2026-09-05 12:41:05 | 16.02849 | 49.68078 | 0° | 0km/h | 159087m | 0m/s | -47.3°C | 0% | 15.6hPa | 2.3V | 00:00:00 | 00:00:00 | 00:00:00 | |
| AA1-15 | 2026-09-05 12:40:54 | 16.02849 | 49.68078 | 0° | 0km/h | 159087m | 0m/s | -47.3°C | 0% | 15.8hPa | 2.3V | 00:00:00 | 00:00:00 | 00:00:00 | |
| AA1-15 | 2026-09-05 12:40:35 | 16.02849 | 49.68078 | 0° | 0km/h | 159087m | 0m/s | -47.3°C | 0% | 16.1hPa | 2.3V | 00:00:00 | 00:00:00 | 00:00:00 | |
| AA1-15 | 2026-09-05 12:40:17 | 16.02849 | 49.68078 | 0° | 0km/h | 159087m | 0m/s | -47°C | 0% | 16.4hPa | 2.3V | 00:00:00 | 00:00:00 | 00:00:00 | |
| AA1-15 | 2026-09-05 12:40:01 | 16.02849 | 49.68078 | 0° | 0km/h | 159087m | 0m/s | -46.8°C | 0% | 16.7hPa | 2.3V | 00:00:00 | 00:00:00 | 00:00:00 | |
| AA1-15 | 2026-09-05 12:39:48 | 16.02849 | 49.68078 | 0° | 0km/h | 159087m | 0m/s | -47.1°C | 0% | 16.9hPa | 2.3V | 00:00:00 | 00:00:00 | 00:00:00 | |
| AA1-15 | 2026-09-05 12:39:37 | 16.02849 | 49.68078 | 0° | 0km/h | 159087m | 0m/s | -47°C | 0% | 17.1hPa | 2.3V | 00:00:00 | 00:00:00 | 00:00:00 | |
| AA1-15 | 2026-09-05 12:39:25 | 16.02849 | 49.68078 | 0° | 0km/h | 159087m | 0m/s | -47.1°C | 0% | 17.4hPa | 2.3V | 00:00:00 | 00:00:00 | 00:00:00 | |
| AA1-15 | 2026-09-05 12:39:11 | 16.02849 | 49.68078 | 0° | 0km/h | 159087m | 0m/s | -47.3°C | 0% | 17.6hPa | 2.3V | 00:00:00 | 00:00:00 | 00:00:00 | |
| AA1-15 | 2026-09-05 12:38:59 | 16.02849 | 49.68078 | 0° | 0km/h | 159087m | 0m/s | -47.5°C | 0% | 17.8hPa | 2.3V | 00:00:00 | 00:00:00 | 00:00:00 | |
| AA1-15 | 2026-09-05 12:38:47 | 16.02849 | 49.68078 | 0° | 0km/h | 159087m | 0m/s | -47.7°C | 0% | 18hPa | 2.3V | 00:00:00 | 00:00:00 | 00:00:00 | |
| AA1-15 | 2026-09-05 12:38:36 | 16.02849 | 49.68078 | 0° | 0km/h | 159087m | 0m/s | -47.6°C | 0% | 18.1hPa | 2.3V | 00:00:00 | 00:00:00 | 00:00:00 | |
| AA1-15 | 2026-09-05 12:37:24 | 16.02849 | 49.68078 | 0° | 0km/h | 159087m | 0m/s | -47.7°C | 0% | 19.4hPa | 2.3V | 00:00:00 | 00:00:00 | 00:00:00 | |
| AA1-15 | 2026-09-05 12:37:12 | 16.02849 | 49.68078 | 0° | 0km/h | 159087m | 0m/s | -47.7°C | 0% | 19.7hPa | 2.3V | 00:00:00 | 00:00:00 | 00:00:00 | |
| AA1-15 | 2026-09-05 12:37:01 | 16.02849 | 49.68078 | 0° | 0km/h | 159087m | 0m/s | -47.8°C | 0% | 19.9hPa | 2.3V | 00:00:00 | 00:00:00 | 00:00:00 | |
| AA1-15 | 2026-09-05 12:36:50 | 16.02849 | 49.68078 | 0° | 0km/h | 159087m | 0m/s | -47.8°C | 0% | 20.1hPa | 2.3V | 00:00:00 | 00:00:00 | 00:00:00 | |
| AA1-15 | 2026-09-05 12:36:40 | 16.02849 | 49.68078 | 0° | 0km/h | 159087m | 0m/s | -48.1°C | 0% | 20.3hPa | 2.3V | 00:00:00 | 00:00:00 | 00:00:00 | |
| AA1-15 | 2026-09-05 12:36:29 | 16.02849 | 49.68078 | 0° | 0km/h | 159087m | 0m/s | -48.2°C | 0% | 20.6hPa | 2.3V | 00:00:00 | 00:00:00 | 00:00:00 | |
| AA1-15 | 2026-09-05 12:36:18 | 16.02849 | 49.68078 | 0° | 0km/h | 159087m | 0m/s | -48.3°C | 0% | 20.8hPa | 2.3V | 00:00:00 | 00:00:00 | 00:00:00 | |
| AA1-15 | 2026-09-05 12:36:07 | 16.02849 | 49.68078 | 0° | 0km/h | 159087m | 0m/s | -48.2°C | 0% | 21hPa | 2.3V | 00:00:00 | 00:00:00 | 00:00:00 | |
| AA1-15 | 2026-09-05 12:35:54 | 16.02849 | 49.68078 | 0° | 0km/h | 159087m | 0m/s | -48.4°C | 0% | 21.3hPa | 2.3V | 00:00:00 | 00:00:00 | 00:00:00 | |
| AA1-15 | 2026-09-05 12:35:43 | 16.02849 | 49.68078 | 0° | 0km/h | 159087m | 0m/s | -48.6°C | 0% | 21.5hPa | 2.3V | 00:00:00 | 00:00:00 | 00:00:00 | |
| AA1-15 | 2026-09-05 12:35:02 | 16.02849 | 49.68078 | 0° | 0km/h | 159087m | 0m/s | -48.4°C | 0% | 22.4hPa | 2.3V | 00:00:00 | 00:00:00 | 00:00:00 | |
| AA1-15 | 2026-09-05 12:34:51 | 16.02849 | 49.68078 | 0° | 0km/h | 159087m | 0m/s | -48.5°C | 0% | 22.7hPa | 2.3V | 00:00:00 | 00:00:00 | 00:00:00 | |
| AA1-15 | 2026-09-05 12:34:40 | 16.02849 | 49.68078 | 0° | 0km/h | 159087m | 0m/s | -48.3°C | 0% | 22.9hPa | 2.3V | 00:00:00 | 00:00:00 | 00:00:00 | |
| AA1-15 | 2026-09-05 12:34:30 | 16.02849 | 49.68078 | 0° | 0km/h | 159087m | 0m/s | -48.2°C | 0% | 23.2hPa | 2.3V | 00:00:00 | 00:00:00 | 00:00:00 | |
| AA1-15 | 2026-09-05 12:34:19 | 16.02849 | 49.68078 | 0° | 0km/h | 159087m | 0m/s | -48.3°C | 0% | 23.4hPa | 2.3V | 00:00:00 | 00:00:00 | 00:00:00 | |
| AA1-15 | 2026-09-05 12:34:00 | 16.02849 | 49.68078 | 0° | 0km/h | 159087m | 0m/s | -48.7°C | 0% | 23.9hPa | 2.3V | 00:00:00 | 00:00:00 | 00:00:00 | |
| AA1-15 | 2026-09-05 12:32:43 | 16.02849 | 49.68078 | 0° | 0km/h | 159087m | 0m/s | -49.1°C | 0% | 25.7hPa | 2.3V | 00:00:00 | 00:00:00 | 00:00:00 | |
| AA1-15 | 2026-09-05 12:32:29 | 16.02849 | 49.68078 | 0° | 0km/h | 159087m | 0m/s | -48.9°C | 0% | 26.1hPa | 2.3V | 00:00:00 | 00:00:00 | 00:00:00 | |
| AA1-15 | 2026-09-05 12:32:18 | 16.02849 | 49.68078 | 0° | 0km/h | 159087m | 0m/s | -48.8°C | 0% | 26.3hPa | 2.3V | 00:00:00 | 00:00:00 | 00:00:00 | |
| AA1-15 | 2026-09-05 12:32:05 | 16.02849 | 49.68078 | 0° | 0km/h | 159087m | 0m/s | -48.5°C | 0% | 26.6hPa | 2.3V | 00:00:00 | 00:00:00 | 00:00:00 | |
| AA1-15 | 2026-09-05 12:31:53 | 16.02849 | 49.68078 | 0° | 0km/h | 159087m | 0m/s | -48.6°C | 0% | 26.9hPa | 2.3V | 00:00:00 | 00:00:00 | 00:00:00 | |
| AA1-15 | 2026-09-05 12:31:39 | 16.02849 | 49.68078 | 0° | 0km/h | 159087m | 0m/s | -48.5°C | 0% | 27.2hPa | 2.3V | 00:00:00 | 00:00:00 | 00:00:00 | |
| AA1-15 | 2026-09-05 12:31:28 | 16.02849 | 49.68078 | 0° | 0km/h | 159087m | 0m/s | -48.5°C | 0% | 27.4hPa | 2.3V | 00:00:00 | 00:00:00 | 00:00:00 | |
| AA1-15 | 2026-09-05 12:31:18 | 16.02849 | 49.68078 | 0° | 0km/h | 159087m | 0m/s | -48.6°C | 0% | 27.8hPa | 2.3V | 00:00:00 | 00:00:00 | 00:00:00 | |
| AA1-15 | 2026-09-05 12:31:07 | 16.02849 | 49.68078 | 0° | 0km/h | 159087m | 0m/s | -48.7°C | 0% | 28.1hPa | 2.3V | 00:00:00 | 00:00:00 | 00:00:00 | |
| AA1-15 | 2026-09-05 12:30:56 | 16.02849 | 49.68078 | 0° | 0km/h | 159087m | 0m/s | -48.8°C | 0% | 28.4hPa | 2.3V | 00:00:00 | 00:00:00 | 00:00:00 | |
| AA1-15 | 2026-09-05 12:30:45 | 16.02849 | 49.68078 | 0° | 0km/h | 159087m | 0m/s | -48.8°C | 0% | 28.6hPa | 2.3V | 00:00:00 | 00:00:00 | 00:00:00 | |
| AA1-15 | 2026-09-05 12:30:34 | 16.02849 | 49.68078 | 0° | 0km/h | 159087m | 0m/s | -49°C | 0% | 28.9hPa | 2.3V | 00:00:00 | 00:00:00 | 00:00:00 | |
| AA1-15 | 2026-09-05 12:30:21 | 16.02849 | 49.68078 | 0° | 0km/h | 159087m | 0m/s | -49.2°C | 0% | 29.3hPa | 2.3V | 00:00:00 | 00:00:00 | 00:00:00 | |
| AA1-15 | 2026-09-05 12:30:10 | 16.02849 | 49.68078 | 0° | 0km/h | 159087m | 0m/s | -49°C | 0% | 29.6hPa | 2.3V | 00:00:00 | 00:00:00 | 00:00:00 | |
| AA1-15 | 2026-09-05 12:29:55 | 16.02849 | 49.68078 | 0° | 0km/h | 159087m | 0m/s | -49.3°C | 0% | 30hPa | 2.3V | 00:00:00 | 00:00:00 | 00:00:00 | |
| AA1-15 | 2026-09-05 12:29:44 | 16.02849 | 49.68078 | 0° | 0km/h | 159087m | 0m/s | -49.3°C | 0% | 30.3hPa | 2.3V | 00:00:00 | 00:00:00 | 00:00:00 | |
| AA1-15 | 2026-09-05 12:29:21 | 16.02849 | 49.68078 | 0° | 0km/h | 159087m | 0m/s | -49.4°C | 0% | 31hPa | 2.3V | 00:00:00 | 00:00:00 | 00:00:00 | |
| AA1-15 | 2026-09-05 12:29:05 | 16.02849 | 49.68078 | 0° | 0km/h | 159087m | 0m/s | -49.4°C | 0% | 31.4hPa | 2.3V | 00:00:00 | 00:00:00 | 00:00:00 | |
| AA1-15 | 2026-09-05 12:28:54 | 16.02849 | 49.68078 | 0° | 0km/h | 159087m | 0m/s | -49.4°C | 0% | 31.7hPa | 2.3V | 00:00:00 | 00:00:00 | 00:00:00 | |
| AA1-15 | 2026-09-05 12:28:42 | 16.02849 | 49.68078 | 0° | 0km/h | 159087m | 0m/s | -49.6°C | 0% | 32.1hPa | 2.3V | 00:00:00 | 00:00:00 | 00:00:00 | |
| AA1-15 | 2026-09-05 12:28:24 | 16.02849 | 49.68078 | 0° | 0km/h | 159087m | 0m/s | -49.8°C | 0% | 32.6hPa | 2.3V | 00:00:00 | 00:00:00 | 00:00:00 | |
| AA1-15 | 2026-09-05 12:28:14 | 16.02849 | 49.68078 | 0° | 0km/h | 159087m | 0m/s | -49.8°C | 0% | 32.9hPa | 2.3V | 00:00:00 | 00:00:00 | 00:00:00 | |
| AA1-15 | 2026-09-05 12:28:03 | 16.02849 | 49.68078 | 0° | 0km/h | 159087m | 0m/s | -49.8°C | 0% | 33.2hPa | 2.3V | 00:00:00 | 00:00:00 | 00:00:00 | |
| AA1-15 | 2026-09-05 12:27:52 | 16.02849 | 49.68078 | 0° | 0km/h | 159087m | 0m/s | -50°C | 0% | 33.6hPa | 2.3V | 00:00:00 | 00:00:00 | 00:00:00 | |
| AA1-15 | 2026-09-05 12:27:31 | 16.02849 | 49.68078 | 0° | 0km/h | 159087m | 0m/s | -49.8°C | 0% | 34.2hPa | 2.3V | 00:00:00 | 00:00:00 | 00:00:00 | |
| AA1-15 | 2026-09-05 12:27:19 | 16.02849 | 49.68078 | 0° | 0km/h | 159087m | 0m/s | -50°C | 0% | 34.6hPa | 2.3V | 00:00:00 | 00:00:00 | 00:00:00 | |
| AA1-15 | 2026-09-05 12:27:09 | 16.02849 | 49.68078 | 0° | 0km/h | 159087m | 0m/s | -49.9°C | 0% | 34.9hPa | 2.3V | 00:00:00 | 00:00:00 | 00:00:00 | |
| AA1-15 | 2026-09-05 12:26:46 | 16.02849 | 49.68078 | 0° | 0km/h | 159087m | 0m/s | -49.8°C | 0% | 35.6hPa | 2.3V | 00:00:00 | 00:00:00 | 00:00:00 | |
| AA1-15 | 2026-09-05 12:26:35 | 16.02849 | 49.68078 | 0° | 0km/h | 159087m | 0m/s | -49.7°C | 0% | 36hPa | 2.3V | 00:00:00 | 00:00:00 | 00:00:00 | |
| AA1-15 | 2026-09-05 12:26:24 | 16.02849 | 49.68078 | 0° | 0km/h | 159087m | 0m/s | -49.9°C | 0% | 36.3hPa | 2.3V | 00:00:00 | 00:00:00 | 00:00:00 | |
| AA1-15 | 2026-09-05 12:26:13 | 16.02849 | 49.68078 | 0° | 0km/h | 159087m | 0m/s | -49.9°C | 0% | 36.7hPa | 2.3V | 00:00:00 | 00:00:00 | 00:00:00 | |
| AA1-15 | 2026-09-05 12:26:02 | 16.02849 | 49.68078 | 0° | 0km/h | 159087m | 0m/s | -50.3°C | 0% | 37.1hPa | 2.3V | 00:00:00 | 00:00:00 | 00:00:00 | |
| AA1-15 | 2026-09-05 12:25:51 | 16.02849 | 49.68078 | 0° | 0km/h | 159087m | 0m/s | -51.1°C | 0% | 37.4hPa | 2.3V | 00:00:00 | 00:00:00 | 00:00:00 | |
| AA1-15 | 2026-09-05 12:25:40 | 16.02849 | 49.68078 | 0° | 0km/h | 159087m | 0m/s | -51.5°C | 0% | 37.8hPa | 2.3V | 00:00:00 | 00:00:00 | 00:00:00 | |
| AA1-15 | 2026-09-05 12:25:30 | 16.02849 | 49.68078 | 0° | 0km/h | 159087m | 0m/s | -51.7°C | 0% | 38.1hPa | 2.3V | 00:00:00 | 00:00:00 | 00:00:00 | |
| AA1-15 | 2026-09-05 12:25:19 | 16.02849 | 49.68078 | 0° | 0km/h | 159087m | 0m/s | -52°C | 0% | 38.5hPa | 2.3V | 00:00:00 | 00:00:00 | 00:00:00 | |
| AA1-15 | 2026-09-05 12:25:01 | 16.02849 | 49.68078 | 0° | 0km/h | 159087m | 0m/s | -52°C | 0% | 39.1hPa | 2.3V | 00:00:00 | 00:00:00 | 00:00:00 | |
| AA1-15 | 2026-09-05 12:24:49 | 16.02849 | 49.68078 | 0° | 0km/h | 159087m | 0m/s | -52.3°C | 0% | 39.6hPa | 2.3V | 00:00:00 | 00:00:00 | 00:00:00 | |
| AA1-15 | 2026-09-05 12:24:38 | 16.02849 | 49.68078 | 0° | 0km/h | 159087m | 0m/s | -52°C | 0% | 40hPa | 2.3V | 00:00:00 | 00:00:00 | 00:00:00 | |
| AA1-15 | 2026-09-05 12:24:26 | 16.02849 | 49.68078 | 0° | 0km/h | 159087m | 0m/s | -51.8°C | 0% | 40.4hPa | 2.3V | 00:00:00 | 00:00:00 | 00:00:00 | |
| AA1-15 | 2026-09-05 12:24:15 | 16.02849 | 49.68078 | 0° | 0km/h | 159087m | 0m/s | -51.8°C | 0% | 40.9hPa | 2.3V | 00:00:00 | 00:00:00 | 00:00:00 | |
| AA1-15 | 2026-09-05 12:23:54 | 16.02849 | 49.68078 | 0° | 0km/h | 159087m | 0m/s | -51.4°C | 0% | 41.6hPa | 2.3V | 00:00:00 | 00:00:00 | 00:00:00 | |
| AA1-15 | 2026-09-05 12:23:43 | 16.02849 | 49.68078 | 0° | 0km/h | 159087m | 0m/s | -51.2°C | 0% | 42hPa | 2.3V | 00:00:00 | 00:00:00 | 00:00:00 | |
| AA1-15 | 2026-09-05 12:23:15 | 16.02849 | 49.68078 | 0° | 0km/h | 159087m | 0m/s | -51.1°C | 0% | 43hPa | 2.3V | 00:00:00 | 00:00:00 | 00:00:00 | |
| AA1-15 | 2026-09-05 12:22:18 | 16.02849 | 49.68078 | 0° | 0km/h | 159087m | 0m/s | -48.7°C | 0% | 45.2hPa | 2.3V | 00:00:00 | 00:00:00 | 00:00:00 | |
| AA1-15 | 2026-09-05 12:22:04 | 16.02849 | 49.68078 | 0° | 0km/h | 159087m | 0m/s | -48.4°C | 0% | 45.8hPa | 2.3V | 00:00:00 | 00:00:00 | 00:00:00 | |
| AA1-15 | 2026-09-05 12:21:53 | 16.02849 | 49.68078 | 0° | 0km/h | 159087m | 0m/s | -48.4°C | 0% | 46.2hPa | 2.3V | 00:00:00 | 00:00:00 | 00:00:00 | |
| AA1-15 | 2026-09-05 12:21:41 | 16.02849 | 49.68078 | 0° | 0km/h | 159087m | 0m/s | -48°C | 0% | 46.8hPa | 2.3V | 00:00:00 | 00:00:00 | 00:00:00 | |
| SP3BTT-10 | 2026-09-05 12:01:07 | 54.67198 | 18.38346 | 86° | 78km/h | 13431m | -5.3m/s | 0°C | 0% | 0hPa | 0V | 00:00:00 | 00:00:00 | 00:00:00 | |
| SP3BTT-10 | 2026-09-05 12:00:37 | 54.67311 | 18.37347 | 58° | 71km/h | 14049m | -28.7m/s | 0°C | 0% | 0hPa | 0V | 00:00:00 | 00:00:00 | 00:00:00 | |
| SP3BTT-10 | 2026-09-05 12:00:07 | 54.67361 | 18.36478 | 111° | 73km/h | 14502m | 1.1m/s | 0°C | 0% | 0hPa | 0V | 00:00:00 | 00:00:00 | 00:00:00 | |
| SP3BTT-10 | 2026-09-05 11:59:37 | 54.67482 | 18.35593 | 93° | 80km/h | 14274m | 5.3m/s | 0°C | 0% | 0hPa | 0V | 00:00:00 | 00:00:00 | 00:00:00 | |
| SP3BTT-10 | 2026-09-05 11:59:07 | 54.67531 | 18.34518 | 96° | 84km/h | 14203m | 7.4m/s | 0°C | 0% | 0hPa | 0V | 00:00:00 | 00:00:00 | 00:00:00 | |
| SP3BTT-10 | 2026-09-05 11:58:12 | 54.67621 | 18.32629 | 96° | 77km/h | 13903m | 7.9m/s | 0°C | 0% | 0hPa | 0V | 00:00:00 | 00:00:00 | 00:00:00 | |
| SP3BTT-10 | 2026-09-05 11:57:41 | 54.67647 | 18.31623 | 96° | 75km/h | 13812m | 4.9m/s | 0°C | 0% | 0hPa | 0V | 00:00:00 | 00:00:00 | 00:00:00 | |
| SP3BTT-10 | 2026-09-05 11:55:49 | 54.67793 | 18.27689 | 74° | 88km/h | 13302m | -1.7m/s | 0°C | 0% | 0hPa | 0V | 00:00:00 | 00:00:00 | 00:00:00 | |
| SP3BTT-10 | 2026-09-05 11:55:19 | 54.67774 | 18.26616 | 87° | 80km/h | 13146m | 6.7m/s | 0°C | 0% | 0hPa | 0V | 00:00:00 | 00:00:00 | 00:00:00 | |
| SP3BTT-10 | 2026-09-05 11:54:49 | 54.67816 | 18.25517 | 95° | 88km/h | 12962m | 3.6m/s | 0°C | 0% | 0hPa | 0V | 00:00:00 | 00:00:00 | 00:00:00 | |
| SP3BTT-10 | 2026-09-05 11:54:19 | 54.67857 | 18.24362 | 82° | 80km/h | 12824m | 3.2m/s | 0°C | 0% | 0hPa | 0V | 00:00:00 | 00:00:00 | 00:00:00 | |
| SP3BTT-10 | 2026-09-05 11:53:49 | 54.67880 | 18.23292 | 95° | 84km/h | 12641m | 3.3m/s | 0°C | 0% | 0hPa | 0V | 00:00:00 | 00:00:00 | 00:00:00 | |
| SP3BTT-10 | 2026-09-05 11:53:19 | 54.67993 | 18.22178 | 100° | 89km/h | 12532m | 7.3m/s | 0°C | 0% | 0hPa | 0V | 00:00:00 | 00:00:00 | 00:00:00 | |
| SP3BTT-10 | 2026-09-05 11:52:42 | 54.68137 | 18.20797 | 99° | 91km/h | 12312m | 2.9m/s | 0°C | 0% | 0hPa | 0V | 00:00:00 | 00:00:00 | 00:00:00 | |
| SP3BTT-10 | 2026-09-05 11:49:43 | 54.68792 | 18.13884 | 97° | 86km/h | 11281m | 3.7m/s | 0°C | 0% | 0hPa | 0V | 00:00:00 | 00:00:00 | 00:00:00 |